createdAt,value
2018-07-20T00:03:06.129Z,11.76
2018-07-20T00:09:01.129Z,10.45
2018-07-20T00:14:56.138Z,9.81
2018-07-20T00:26:46.187Z,9.56
2018-07-20T00:32:41.177Z,9.39
2018-07-20T00:38:36.164Z,9.34
2018-07-20T00:44:31.165Z,10.28
2018-07-20T00:50:26.196Z,10.41
2018-07-20T00:56:21.228Z,11.54
2018-07-20T01:02:16.248Z,12.21
2018-07-20T01:08:11.220Z,12.22
2018-07-20T01:14:06.207Z,11.67
2018-07-20T01:20:01.240Z,11.93
2018-07-20T01:25:56.199Z,11.66
2018-07-20T01:31:51.186Z,11.3
2018-07-20T01:37:46.218Z,12.13
2018-07-20T01:43:41.201Z,12.94
2018-07-20T01:49:36.232Z,11.57
2018-07-20T01:55:31.219Z,11.17
2018-07-20T02:01:26.220Z,10.94
2018-07-20T02:07:21.227Z,12.36
2018-07-20T02:13:16.246Z,10.87
2018-07-20T02:19:11.244Z,12.37
2018-07-20T02:25:06.236Z,12.31
2018-07-20T02:31:01.261Z,12.04
2018-07-20T02:36:56.235Z,11.22
2018-07-20T02:42:51.347Z,10.42
2018-07-20T02:48:46.238Z,9.62
2018-07-20T02:54:41.262Z,11.52
2018-07-20T03:00:36.248Z,11.09
2018-07-20T03:06:31.291Z,10.25
2018-07-20T03:12:26.287Z,10.5
2018-07-20T03:18:21.307Z,11.33
2018-07-20T03:24:16.262Z,11.11
2018-07-20T03:30:11.259Z,11.35
2018-07-20T03:36:06.313Z,12.5
2018-07-20T03:42:01.311Z,11.44
2018-07-20T03:47:56.342Z,11.92
2018-07-20T03:53:51.342Z,11.6
2018-07-20T03:59:46.292Z,12.47
2018-07-20T04:05:41.308Z,13.28
2018-07-20T04:11:36.344Z,13.44
2018-07-20T04:17:31.311Z,13.19
2018-07-20T04:23:26.296Z,12.6
2018-07-20T04:29:21.349Z,12.27
2018-07-20T04:35:16.307Z,12.22
2018-07-20T04:41:11.312Z,12.99
2018-07-20T04:47:06.295Z,12.15
2018-07-20T04:53:01.355Z,11.79
2018-07-20T04:58:56.355Z,10.5
2018-07-20T05:04:51.312Z,10.65
2018-07-20T05:10:46.347Z,9.14
2018-07-20T05:16:41.343Z,9.43
2018-07-20T05:22:36.360Z,9.3
2018-07-20T05:28:31.349Z,8.08
2018-07-20T05:34:26.390Z,9.29
2018-07-20T05:40:21.383Z,9.81
2018-07-20T05:46:16.371Z,9.06
2018-07-20T05:52:11.373Z,9.33
2018-07-20T05:58:06.365Z,9.66
2018-07-20T06:04:01.402Z,9.7
2018-07-20T06:09:56.422Z,9.47
2018-07-20T06:15:51.381Z,9.83
2018-07-20T06:21:46.412Z,9.7
2018-07-20T06:27:41.373Z,8.86
2018-07-20T06:33:36.405Z,9.07
2018-07-20T06:39:31.403Z,8.66
2018-07-20T06:45:26.402Z,8.34
2018-07-20T06:51:21.407Z,8.62
2018-07-20T06:57:16.400Z,8.82
2018-07-20T07:03:11.419Z,8.78
2018-07-20T07:09:06.428Z,9.1
2018-07-20T07:15:01.430Z,9.35
2018-07-20T07:20:56.411Z,10.47
2018-07-20T07:26:51.470Z,10.88
2018-07-20T07:32:46.410Z,11.9
2018-07-20T07:38:41.443Z,12.8
2018-07-20T07:44:36.424Z,12.8
2018-07-20T07:50:31.439Z,11.5
2018-07-20T07:56:26.460Z,10.68
2018-07-20T08:02:21.432Z,11.4
2018-07-20T08:08:16.439Z,11.03
2018-07-20T08:14:11.457Z,10.79
2018-07-20T08:20:06.444Z,10.93
2018-07-20T08:26:01.432Z,10.31
2018-07-20T08:31:56.443Z,11.95
2018-07-20T08:37:51.443Z,10.87
2018-07-20T08:43:46.453Z,10.24
2018-07-20T08:49:41.478Z,10.03
2018-07-20T08:55:36.502Z,10.96
2018-07-20T09:01:31.470Z,10.7
2018-07-20T09:07:26.470Z,10.75
2018-07-20T09:13:21.581Z,10.65
2018-07-20T09:19:16.505Z,10.42
2018-07-20T09:25:11.487Z,10.38
2018-07-20T09:31:06.488Z,8.69
2018-07-20T09:37:01.541Z,9.2
2018-07-20T09:42:56.654Z,8.42
2018-07-20T09:48:51.578Z,8.44
2018-07-20T09:54:46.535Z,7.36
2018-07-20T10:00:41.541Z,7.7
2018-07-20T10:06:36.522Z,7.65
2018-07-20T10:12:31.544Z,7.19
2018-07-20T10:18:26.504Z,7.28
2018-07-20T10:24:21.554Z,6.82
2018-07-20T10:30:16.544Z,7.36
2018-07-20T10:36:11.531Z,7.52
2018-07-20T10:42:06.533Z,6.67
2018-07-20T10:48:01.540Z,6.72
2018-07-20T10:53:56.559Z,7.28
2018-07-20T10:59:51.536Z,6.57
2018-07-20T11:05:46.558Z,6.82
2018-07-20T11:11:41.551Z,6.58
2018-07-20T11:17:36.547Z,6.72
2018-07-20T11:23:31.609Z,7.19
2018-07-20T11:29:26.562Z,5.53
2018-07-20T11:35:21.568Z,5.51
2018-07-20T11:41:16.573Z,5.05
2018-07-20T11:47:11.575Z,5.54
2018-07-20T11:53:06.596Z,4.77
2018-07-20T11:59:01.574Z,4.72
2018-07-20T12:04:56.599Z,4.15
2018-07-20T12:10:51.633Z,4.1
2018-07-20T12:16:46.629Z,4.03
2018-07-20T12:22:41.606Z,3.53
2018-07-20T12:28:36.636Z,3.82
2018-07-20T12:34:31.602Z,3.82
2018-07-20T12:40:26.634Z,3.52
2018-07-20T12:46:21.612Z,2.6
2018-07-20T12:52:16.624Z,2.8
2018-07-20T12:58:11.594Z,3.06
2018-07-20T13:04:06.652Z,2.84
2018-07-20T13:10:01.628Z,2.2
2018-07-20T13:15:56.665Z,2.15
2018-07-20T13:21:51.638Z,2.38
2018-07-20T13:27:46.647Z,2.29
2018-07-20T13:33:41.640Z,2.48
2018-07-20T13:39:36.647Z,1.97
2018-07-20T13:45:31.690Z,2.22
2018-07-20T13:51:26.650Z,2.17
2018-07-20T13:57:21.646Z,2.35
2018-07-20T14:03:16.660Z,2.36
2018-07-20T14:09:11.646Z,2.42
2018-07-20T14:15:06.666Z,2.31
2018-07-20T14:21:01.661Z,1.97
2018-07-20T14:26:56.711Z,1.66
2018-07-20T14:32:51.658Z,2.05
2018-07-20T14:38:46.678Z,1.91
2018-07-20T14:44:41.679Z,1.98
2018-07-20T14:50:36.672Z,1.67
2018-07-20T14:56:31.691Z,2.43
2018-07-20T15:02:26.708Z,2.05
2018-07-20T15:08:21.693Z,1.87
2018-07-20T15:14:16.707Z,1.94
2018-07-20T15:20:11.731Z,1.77
2018-07-20T15:26:06.726Z,1.74
2018-07-20T15:32:01.724Z,1.91
2018-07-20T15:37:56.712Z,1.87
2018-07-20T15:43:51.743Z,2.36
2018-07-20T15:49:46.711Z,1.91
2018-07-20T15:55:41.719Z,1.82
2018-07-20T16:01:36.732Z,2.07
2018-07-20T16:07:31.730Z,2.13
2018-07-20T16:13:26.731Z,2.35
2018-07-20T16:19:21.769Z,2.31
2018-07-20T16:25:16.748Z,2
2018-07-20T16:31:11.765Z,2.33
2018-07-20T16:37:06.763Z,2.09
2018-07-20T16:43:01.817Z,2.08
2018-07-20T16:48:56.799Z,2.39
2018-07-20T16:54:51.759Z,2.11
2018-07-20T17:00:46.776Z,2.28
2018-07-20T17:06:41.760Z,2.09
2018-07-20T17:12:36.795Z,2.61
2018-07-20T17:18:31.786Z,2.08
2018-07-20T17:24:26.764Z,2.33
2018-07-20T17:30:21.785Z,2.17
2018-07-20T17:36:16.800Z,2.61
2018-07-20T17:42:11.798Z,2.11
2018-07-20T17:48:06.810Z,2.36
2018-07-20T17:54:01.787Z,2.2
2018-07-20T17:59:56.850Z,2.66
2018-07-20T18:05:51.816Z,2.89
2018-07-20T18:11:46.800Z,2.59
2018-07-20T18:17:41.891Z,2.94
2018-07-20T18:23:36.824Z,2.82
2018-07-20T18:29:31.803Z,2.87
2018-07-20T18:35:26.814Z,3
2018-07-20T18:41:21.830Z,3.2
2018-07-20T18:47:16.864Z,3.17
2018-07-20T18:53:11.866Z,3.36
2018-07-20T18:59:06.862Z,3.03
2018-07-20T19:05:01.885Z,2.95
2018-07-20T19:10:56.931Z,2.85
2018-07-20T19:16:51.847Z,2.93
2018-07-20T19:22:46.848Z,3.3
2018-07-20T19:28:41.897Z,3.11
2018-07-20T19:34:36.845Z,3.19
2018-07-20T19:40:31.864Z,4.04
2018-07-20T19:46:26.931Z,3.44
2018-07-20T19:52:21.895Z,3.88
2018-07-20T19:58:16.866Z,3.55
2018-07-20T20:04:11.910Z,3.95
2018-07-20T20:10:06.954Z,3.5
2018-07-20T20:16:01.925Z,3.64
2018-07-20T20:21:56.902Z,4.15
2018-07-20T20:27:51.919Z,4.33
2018-07-20T20:33:46.889Z,4.2
2018-07-20T20:39:41.914Z,3.9
2018-07-20T20:45:37.020Z,4.87
2018-07-20T20:51:31.907Z,4.86
2018-07-20T20:57:26.948Z,4.74
2018-07-20T21:03:21.921Z,5.46
2018-07-20T21:09:16.920Z,5.12
2018-07-20T21:15:11.918Z,5
2018-07-20T21:21:06.943Z,5.61
2018-07-20T21:27:01.929Z,5.53
2018-07-20T21:32:56.958Z,5.84
2018-07-20T21:38:51.943Z,5.62
2018-07-20T21:44:46.963Z,5.47
2018-07-20T21:50:41.953Z,4.88
2018-07-20T21:56:36.961Z,5.27
2018-07-20T22:02:31.949Z,5.09
2018-07-20T22:08:26.968Z,5.17
2018-07-20T22:14:21.989Z,5.69
2018-07-20T22:20:17.008Z,7.1
2018-07-20T22:26:11.967Z,6.56
2018-07-20T22:32:06.962Z,6.53
2018-07-20T22:38:01.955Z,6.32
2018-07-20T22:43:56.979Z,6.07
2018-07-20T22:49:51.972Z,6.18
2018-07-20T22:55:47.004Z,5.6
2018-07-20T23:01:42.041Z,7.2
2018-07-20T23:07:37.033Z,6.64
2018-07-20T23:13:32.006Z,6.83
2018-07-20T23:19:26.986Z,7.95
2018-07-20T23:25:21.986Z,7.01
2018-07-20T23:31:16.993Z,15.16
2018-07-20T23:37:12.024Z,6.63
2018-07-20T23:43:07.024Z,5.89
2018-07-20T23:49:02.013Z,6.67
2018-07-20T23:54:57.054Z,6.29
